createdAt,value
2022-11-04T00:02:13.303Z,101093.00
2022-11-04T00:04:40.363Z,101088.63
2022-11-04T00:07:27.178Z,101082.44
2022-11-04T00:09:54.113Z,101086.88
2022-11-04T00:12:27.236Z,101091.22
2022-11-04T00:14:54.402Z,101078.91
2022-11-04T00:17:24.387Z,101091.25
2022-11-04T00:20:13.609Z,101090.41
2022-11-04T00:23:00.655Z,101081.56
2022-11-04T00:25:46.415Z,101084.25
2022-11-04T00:28:31.524Z,101084.28
2022-11-04T00:31:19.810Z,101081.63
2022-11-04T00:33:47.490Z,101077.16
2022-11-04T00:36:14.603Z,101074.56
2022-11-04T00:38:41.410Z,101063.03
2022-11-04T00:41:26.457Z,101061.19
2022-11-04T00:43:58.196Z,101060.34
2022-11-04T00:46:25.619Z,101056.72
2022-11-04T00:48:52.774Z,101059.75
2022-11-04T00:51:21.537Z,101061.63
2022-11-04T00:53:49.141Z,101058.97
2022-11-04T00:56:16.010Z,101058.03
2022-11-04T00:58:42.898Z,101051.06
2022-11-04T01:01:11.360Z,101049.28
2022-11-04T01:03:38.468Z,101043.94
2022-11-04T01:06:05.864Z,101038.78
2022-11-04T01:08:32.726Z,101037.09
2022-11-04T01:11:04.646Z,101042.38
2022-11-04T01:13:32.732Z,101044.06
2022-11-04T01:16:01.165Z,101038.69
2022-11-04T01:18:28.447Z,101043.94
2022-11-04T01:20:55.356Z,101032.38
2022-11-04T01:23:22.287Z,101035.00
2022-11-04T01:25:49.321Z,101033.16
2022-11-04T01:28:16.273Z,101040.31
2022-11-04T01:30:43.104Z,101037.69
2022-11-04T01:33:09.935Z,101036.88
2022-11-04T01:35:36.807Z,101028.84
2022-11-04T01:38:03.888Z,101028.97
2022-11-04T01:40:30.801Z,101028.22
2022-11-04T01:42:57.636Z,101033.38
2022-11-04T01:45:24.589Z,101022.81
2022-11-04T01:48:01.591Z,101017.44
2022-11-04T01:50:32.216Z,101018.31
2022-11-04T01:53:02.683Z,101016.59
2022-11-04T01:55:33.939Z,101015.66
2022-11-04T01:58:14.389Z,101023.50
2022-11-04T02:00:42.957Z,101020.78
2022-11-04T02:03:18.432Z,101025.31
2022-11-04T02:05:46.874Z,101020.09
2022-11-04T02:08:15.439Z,101027.28
2022-11-04T02:10:50.849Z,101018.53
2022-11-04T02:13:18.258Z,101015.94
2022-11-04T02:15:45.055Z,101010.66
2022-11-04T02:19:06.174Z,101009.75
2022-11-04T02:22:06.447Z,101005.44
2022-11-04T02:25:17.106Z,101006.34
2022-11-04T02:28:07.955Z,101007.19
2022-11-04T02:31:01.225Z,101007.19
2022-11-04T02:33:42.163Z,101004.59
2022-11-04T02:36:20.887Z,100994.94
2022-11-04T02:39:06.244Z,100996.69
2022-11-04T02:41:33.390Z,101000.16
2022-11-04T02:44:25.549Z,101000.03
2022-11-04T02:47:08.640Z,100998.19
2022-11-04T02:49:41.281Z,100988.47
2022-11-04T02:52:14.954Z,100999.16
2022-11-04T02:54:48.197Z,100992.94
2022-11-04T02:57:24.632Z,100992.06
2022-11-04T03:00:01.623Z,100990.34
2022-11-04T03:02:54.346Z,100991.25
2022-11-04T03:05:29.252Z,100991.22
2022-11-04T03:08:01.133Z,100981.44
2022-11-04T03:10:36.299Z,100979.56
2022-11-04T03:13:11.669Z,100984.91
2022-11-04T03:15:40.972Z,100981.44
2022-11-04T03:18:22.745Z,100989.34
2022-11-04T03:20:51.673Z,100994.56
2022-11-04T03:23:19.339Z,101000.84
2022-11-04T03:25:50.333Z,101004.47
2022-11-04T03:28:32.755Z,100999.19
2022-11-04T03:31:03.383Z,101000.97
2022-11-04T03:33:36.089Z,100993.97
2022-11-04T03:36:04.484Z,101006.22
2022-11-04T03:38:31.517Z,101000.97
2022-11-04T03:41:01.472Z,100997.47
2022-11-04T03:43:30.814Z,100994.72
2022-11-04T03:45:58.208Z,100984.19
2022-11-04T03:48:25.776Z,100986.00
2022-11-04T03:50:52.888Z,100984.19
2022-11-04T03:53:24.176Z,100982.44
2022-11-04T03:56:13.248Z,100978.97
2022-11-04T03:58:45.744Z,100971.81
2022-11-04T04:01:44.669Z,100968.28
2022-11-04T04:04:43.640Z,100956.81
2022-11-04T04:07:16.793Z,100972.06
2022-11-04T04:09:50.111Z,100969.50
2022-11-04T04:12:27.614Z,100968.66
2022-11-04T04:15:07.550Z,100960.72
2022-11-04T04:17:59.183Z,100968.63
2022-11-04T04:20:29.533Z,100968.53
2022-11-04T04:23:02.247Z,100960.53
2022-11-04T04:25:50.580Z,100967.50
2022-11-04T04:28:19.777Z,100960.41
2022-11-04T04:30:47.140Z,100968.50
2022-11-04T04:33:17.738Z,100965.09
2022-11-04T04:35:53.140Z,100970.38
2022-11-04T04:38:40.638Z,100966.88
2022-11-04T04:41:37.352Z,100967.69
2022-11-04T04:44:42.916Z,100963.38
2022-11-04T04:47:13.677Z,100957.19
2022-11-04T04:49:58.301Z,100959.66
2022-11-04T04:52:28.167Z,100959.56
2022-11-04T04:54:55.165Z,100962.38
2022-11-04T04:57:22.250Z,100967.66
2022-11-04T04:59:49.073Z,100971.09
2022-11-04T05:02:16.342Z,100968.44
2022-11-04T05:04:43.400Z,100964.03
2022-11-04T05:07:10.317Z,100964.69
2022-11-04T05:09:37.470Z,100959.31
2022-11-04T05:12:04.470Z,100959.41
2022-11-04T05:14:31.468Z,100967.81
2022-11-04T05:16:58.399Z,100966.00
2022-11-04T05:19:25.277Z,100966.78
2022-11-04T05:21:52.257Z,100964.31
2022-11-04T05:24:19.192Z,100962.72
2022-11-04T05:26:46.130Z,100960.13
2022-11-04T05:31:44.915Z,100957.53
2022-11-04T05:34:13.183Z,100955.31
2022-11-04T05:36:40.351Z,100966.97
2022-11-04T05:39:07.451Z,100963.06
2022-11-04T05:41:35.160Z,100965.03
2022-11-04T05:44:04.598Z,100966.31
2022-11-04T05:46:31.744Z,100970.81
2022-11-04T05:48:58.732Z,100970.91
2022-11-04T05:51:27.715Z,100973.38
2022-11-04T05:53:54.976Z,100970.66
2022-11-04T05:56:22.018Z,100986.09
2022-11-04T05:58:49.014Z,100992.88
2022-11-04T06:01:27.187Z,100993.91
2022-11-04T06:03:54.746Z,100987.94
2022-11-04T06:06:23.333Z,100986.19
2022-11-04T06:08:51.599Z,100983.03
2022-11-04T06:11:19.162Z,100980.22
2022-11-04T06:13:46.040Z,100981.31
2022-11-04T06:16:12.902Z,100971.91
2022-11-04T06:18:39.825Z,100966.38
2022-11-04T06:21:15.588Z,100968.53
2022-11-04T06:23:43.492Z,100982.63
2022-11-04T06:26:12.017Z,100978.69
2022-11-04T06:28:39.259Z,100981.94
2022-11-04T06:31:08.759Z,100985.19
2022-11-04T06:33:37.029Z,100990.22
2022-11-04T06:36:06.756Z,101006.13
2022-11-04T06:38:35.486Z,100997.38
2022-11-04T06:41:02.455Z,101000.75
2022-11-04T06:43:29.518Z,100997.19
2022-11-04T06:45:58.571Z,100997.59
2022-11-04T06:48:26.182Z,100987.53
2022-11-04T06:50:53.322Z,100979.56
2022-11-04T06:53:20.213Z,100990.84
2022-11-04T06:55:47.192Z,100984.22
2022-11-04T06:58:14.066Z,100985.75
2022-11-04T07:00:40.984Z,100984.88
2022-11-04T07:03:09.969Z,100981.22
2022-11-04T07:05:37.265Z,100977.25
2022-11-04T07:08:04.352Z,100976.03
2022-11-04T07:10:31.211Z,100985.38
2022-11-04T07:12:58.055Z,100979.81
2022-11-04T07:15:27.649Z,100971.06
2022-11-04T07:17:54.636Z,100970.81
2022-11-04T07:20:21.526Z,100974.28
2022-11-04T07:22:48.409Z,100968.09
2022-11-04T07:25:15.467Z,100972.63
2022-11-04T07:27:42.408Z,100967.41
2022-11-04T07:30:11.105Z,100970.72
2022-11-04T07:32:37.954Z,100972.44
2022-11-04T07:35:05.127Z,100963.06
2022-11-04T07:37:31.975Z,100968.56
2022-11-04T07:39:58.850Z,100965.13
2022-11-04T07:42:25.726Z,100973.88
2022-11-04T07:44:55.484Z,100968.00
2022-11-04T07:47:22.441Z,100968.94
2022-11-04T07:49:49.403Z,100965.81
2022-11-04T07:52:16.298Z,100965.81
2022-11-04T07:54:43.200Z,100965.78
2022-11-04T07:57:10.070Z,100969.22
2022-11-04T07:59:36.941Z,100961.56
2022-11-04T08:02:04.219Z,100953.34
2022-11-04T08:04:31.272Z,100955.56
2022-11-04T08:06:58.133Z,100943.09
2022-11-04T08:09:25.182Z,100941.59
2022-11-04T08:11:52.274Z,100945.91
2022-11-04T08:14:19.156Z,100946.72
2022-11-04T08:16:46.296Z,100945.25
2022-11-04T08:19:13.959Z,100947.72
2022-11-04T08:21:40.870Z,100945.59
2022-11-04T08:24:07.810Z,100944.84
2022-11-04T08:26:35.080Z,100938.28
2022-11-04T08:29:02.607Z,100934.91
2022-11-04T08:31:31.729Z,100932.94
2022-11-04T08:33:58.650Z,100933.44
2022-11-04T08:36:32.970Z,100927.94
2022-11-04T08:39:03.246Z,100924.94
2022-11-04T08:41:34.661Z,100919.31
2022-11-04T08:44:04.236Z,100925.63
2022-11-04T08:46:37.719Z,100918.09
2022-11-04T08:49:09.928Z,100913.22
2022-11-04T08:51:41.608Z,100912.53
2022-11-04T08:54:08.830Z,100909.16
2022-11-04T08:56:37.990Z,100907.47
2022-11-04T08:59:05.537Z,100907.31
2022-11-04T09:01:36.003Z,100909.03
2022-11-04T09:04:04.173Z,100897.03
2022-11-04T09:06:40.899Z,100895.81
2022-11-04T09:09:11.008Z,100899.59
2022-11-04T09:11:41.301Z,100898.22
2022-11-04T09:14:10.575Z,100893.13
2022-11-04T09:16:39.063Z,100879.56
2022-11-04T09:19:06.466Z,100890.31
2022-11-04T09:21:33.651Z,100883.94
2022-11-04T09:24:00.617Z,100864.13
2022-11-04T09:26:28.304Z,100869.72
2022-11-04T09:28:56.736Z,100867.97
2022-11-04T09:31:25.199Z,100863.53
2022-11-04T09:33:52.084Z,100849.59
2022-11-04T09:36:19.099Z,100852.78
2022-11-04T09:38:45.946Z,100850.47
2022-11-04T09:41:49.116Z,100842.75
2022-11-04T09:45:07.366Z,100848.25
2022-11-04T09:47:34.839Z,100835.44
2022-11-04T09:50:06.542Z,100833.72
2022-11-04T09:52:41.892Z,100836.72
2022-11-04T09:55:30.680Z,100826.97
2022-11-04T09:57:58.822Z,100830.34
2022-11-04T10:00:26.171Z,100816.31
2022-11-04T10:03:04.998Z,100814.69
2022-11-04T10:06:02.182Z,100809.78
2022-11-04T10:08:37.918Z,100808.09
2022-11-04T10:11:47.533Z,100803.03
2022-11-04T10:14:37.393Z,100805.25
2022-11-04T10:17:21.369Z,100805.63
2022-11-04T10:20:00.036Z,100787.66
2022-11-04T10:22:45.572Z,100787.38
2022-11-04T10:25:22.321Z,100791.78
2022-11-04T10:27:51.298Z,100784.69
2022-11-04T10:30:23.767Z,100779.84
2022-11-04T10:33:03.358Z,100786.22
2022-11-04T10:36:00.227Z,100773.44
2022-11-04T10:38:38.573Z,100759.78
2022-11-04T10:41:35.611Z,100763.34
2022-11-04T10:44:20.451Z,100757.06
2022-11-04T10:47:04.784Z,100758.13
2022-11-04T10:52:46.003Z,100747.88
2022-11-04T10:55:38.756Z,100732.28
2022-11-04T10:58:17.309Z,100735.81
2022-11-04T11:00:44.522Z,100726.13
2022-11-04T11:03:31.681Z,100711.69
2022-11-04T11:06:14.679Z,100718.69
2022-11-04T11:08:42.941Z,100714.72
2022-11-04T11:11:11.217Z,100714.72
2022-11-04T11:13:41.365Z,100701.97
2022-11-04T11:16:28.888Z,100705.00
2022-11-04T11:19:15.936Z,100697.28
2022-11-04T11:21:49.218Z,100698.78
2022-11-04T11:24:23.602Z,100694.31
2022-11-04T11:26:56.708Z,100702.94
2022-11-04T11:29:40.483Z,100697.59
2022-11-04T11:32:43.548Z,100687.13
2022-11-04T11:35:17.951Z,100691.03
2022-11-04T11:37:48.773Z,100693.75
2022-11-04T11:40:32.202Z,100692.81
2022-11-04T11:43:02.728Z,100680.69
2022-11-04T11:45:30.123Z,100690.16
2022-11-04T11:47:57.102Z,100680.94
2022-11-04T11:50:32.721Z,100679.97
2022-11-04T11:53:35.617Z,100672.84
2022-11-04T11:56:40.411Z,100677.84
2022-11-04T12:02:36.363Z,100666.28
2022-11-04T12:11:20.900Z,100654.59
2022-11-04T12:13:57.472Z,100645.38
2022-11-04T12:16:34.412Z,100651.03
2022-11-04T12:19:32.207Z,100652.34
2022-11-04T12:22:34.475Z,100653.66
2022-11-04T12:25:10.180Z,100659.00
2022-11-04T12:27:47.608Z,100642.03
2022-11-04T12:30:21.240Z,100638.28
2022-11-04T12:33:05.089Z,100645.31
2022-11-04T12:36:17.162Z,100645.19
2022-11-04T12:39:20.088Z,100635.91
2022-11-04T12:42:32.837Z,100638.28
2022-11-04T12:45:26.037Z,100639.91
2022-11-04T12:48:00.419Z,100635.34
2022-11-04T12:50:50.583Z,100636.03
2022-11-04T12:53:26.416Z,100634.06
2022-11-04T12:56:14.888Z,100630.84
2022-11-04T12:58:56.613Z,100634.31
2022-11-04T13:01:41.087Z,100630.72
2022-11-04T13:04:17.106Z,100625.56
2022-11-04T13:06:54.029Z,100627.81
2022-11-04T13:09:38.912Z,100637.41
2022-11-04T13:12:14.114Z,100625.09
2022-11-04T13:15:05.392Z,100632.78
2022-11-04T13:17:40.153Z,100631.53
2022-11-04T13:20:15.613Z,100624.53
2022-11-04T13:22:51.949Z,100632.13
2022-11-04T13:25:33.703Z,100624.72
2022-11-04T13:28:02.451Z,100624.94
2022-11-04T13:30:41.125Z,100623.28
2022-11-04T13:33:35.885Z,100621.66
2022-11-04T13:36:30.721Z,100616.34
2022-11-04T13:39:04.800Z,100623.56
2022-11-04T13:41:58.730Z,100614.53
2022-11-04T13:44:29.075Z,100610.03
2022-11-04T13:47:01.606Z,100613.44
2022-11-04T13:49:33.956Z,100618.13
2022-11-04T13:52:11.531Z,100623.50
2022-11-04T13:54:38.915Z,100626.72
2022-11-04T13:57:10.780Z,100616.13
2022-11-04T13:59:37.961Z,100610.31
2022-11-04T14:02:19.919Z,100609.66
2022-11-04T14:04:47.457Z,100609.56
2022-11-04T14:07:18.112Z,100612.91
2022-11-04T14:09:45.048Z,100608.56
2022-11-04T14:12:13.504Z,100615.47
2022-11-04T14:14:48.041Z,100602.56
2022-11-04T14:17:32.973Z,100609.16
2022-11-04T14:20:19.495Z,100612.53
2022-11-04T14:22:53.011Z,100605.50
2022-11-04T14:25:58.723Z,100602.03
2022-11-04T14:28:28.636Z,100589.59
2022-11-04T14:31:04.654Z,100602.19
2022-11-04T14:33:42.642Z,100593.75
2022-11-04T14:36:21.759Z,100587.78
2022-11-04T14:38:56.796Z,100581.72
2022-11-04T14:41:40.161Z,100591.84
2022-11-04T14:44:18.392Z,100586.69
2022-11-04T14:46:47.838Z,100592.78
2022-11-04T14:49:39.949Z,100594.00
2022-11-04T14:52:14.545Z,100594.00
2022-11-04T14:54:41.853Z,100591.41
2022-11-04T14:57:23.079Z,100594.16
2022-11-04T14:59:52.370Z,100595.94
2022-11-04T15:02:23.636Z,100585.44
2022-11-04T15:05:00.307Z,100586.31
2022-11-04T15:07:39.535Z,100580.97
2022-11-04T15:10:28.059Z,100585.28
2022-11-04T15:13:00.900Z,100589.56
2022-11-04T15:15:31.671Z,100586.06
2022-11-04T15:18:27.138Z,100588.09
2022-11-04T15:20:58.215Z,100587.03
2022-11-04T15:23:29.126Z,100587.13
2022-11-04T15:25:57.946Z,100587.03
2022-11-04T15:28:28.813Z,100578.56
2022-11-04T15:31:07.856Z,100580.88
2022-11-04T15:33:40.767Z,100586.22
2022-11-04T15:36:14.130Z,100578.31
2022-11-04T15:38:47.275Z,100576.78
2022-11-04T15:41:38.304Z,100579.53
2022-11-04T15:44:14.824Z,100580.41
2022-11-04T15:46:48.513Z,100575.06
2022-11-04T15:49:27.289Z,100581.00
2022-11-04T15:52:06.264Z,100587.28
2022-11-04T15:54:39.633Z,100583.06
2022-11-04T15:57:18.843Z,100586.72
2022-11-04T16:00:07.671Z,100576.00
2022-11-04T16:02:55.344Z,100580.69
2022-11-04T16:05:40.056Z,100583.50
2022-11-04T16:08:22.268Z,100576.25
2022-11-04T16:10:50.176Z,100572.63
2022-11-04T16:13:17.096Z,100573.44
2022-11-04T16:15:49.479Z,100571.66
2022-11-04T16:18:29.794Z,100568.19
2022-11-04T16:20:57.846Z,100569.78
2022-11-04T16:23:28.317Z,100580.44
2022-11-04T16:26:01.467Z,100574.31
2022-11-04T16:28:31.600Z,100570.78
2022-11-04T16:31:21.420Z,100566.38
2022-11-04T16:33:49.428Z,100574.38
2022-11-04T16:36:30.903Z,100571.75
2022-11-04T16:39:09.083Z,100568.34
2022-11-04T16:41:38.836Z,100568.34
2022-11-04T16:44:15.747Z,100568.03
2022-11-04T16:46:42.712Z,100569.63
2022-11-04T16:49:14.464Z,100574.00
2022-11-04T16:51:41.522Z,100571.50
2022-11-04T16:54:08.977Z,100569.84
2022-11-04T16:56:36.140Z,100578.41
2022-11-04T16:59:03.084Z,100573.09
2022-11-04T17:01:30.222Z,100572.09
2022-11-04T17:03:57.252Z,100570.28
2022-11-04T17:06:24.366Z,100580.03
2022-11-04T17:08:51.397Z,100570.03
2022-11-04T17:11:18.408Z,100577.66
2022-11-04T17:13:45.236Z,100574.34
2022-11-04T17:16:14.057Z,100572.69
2022-11-04T17:18:41.435Z,100569.97
2022-11-04T17:21:13.345Z,100580.34
2022-11-04T17:23:40.316Z,100568.09
2022-11-04T17:26:07.262Z,100574.16
2022-11-04T17:28:34.182Z,100567.97
2022-11-04T17:31:02.715Z,100569.88
2022-11-04T17:33:29.974Z,100562.56
2022-11-04T17:35:57.037Z,100560.88
2022-11-04T17:38:23.880Z,100560.94
2022-11-04T17:41:09.433Z,100553.91
2022-11-04T17:43:54.521Z,100555.63
2022-11-04T17:46:41.808Z,100552.81
2022-11-04T17:49:13.558Z,100546.97
2022-11-04T17:51:43.084Z,100544.09
2022-11-04T17:54:10.828Z,100550.16
2022-11-04T17:56:38.303Z,100537.22
2022-11-04T17:59:05.206Z,100540.94
2022-11-04T18:01:33.701Z,100539.09
2022-11-04T18:04:00.876Z,100540.94
2022-11-04T18:06:30.706Z,100548.38
2022-11-04T18:08:59.274Z,100548.31
2022-11-04T18:11:47.021Z,100536.72
2022-11-04T18:14:16.905Z,100539.78
2022-11-04T18:16:46.484Z,100539.94
2022-11-04T18:19:14.436Z,100538.34
2022-11-04T18:21:41.547Z,100542.63
2022-11-04T18:24:09.737Z,100541.50
2022-11-04T18:26:37.009Z,100541.91
2022-11-04T18:29:05.792Z,100541.81
2022-11-04T18:31:35.713Z,100541.00
2022-11-04T18:34:07.753Z,100538.22
2022-11-04T18:36:35.191Z,100530.13
2022-11-04T18:39:02.211Z,100533.56
2022-11-04T18:41:30.122Z,100541.56
2022-11-04T18:43:57.383Z,100543.31
2022-11-04T18:46:24.274Z,100542.31
2022-11-04T18:48:51.872Z,100539.09
2022-11-04T18:51:22.203Z,100532.63
2022-11-04T18:53:50.604Z,100535.22
2022-11-04T18:56:22.841Z,100530.94
2022-11-04T18:58:50.167Z,100529.22
2022-11-04T19:01:22.037Z,100531.06
2022-11-04T19:03:50.074Z,100522.91
2022-11-04T19:06:20.160Z,100529.88
2022-11-04T19:08:47.815Z,100526.22
2022-11-04T19:11:19.448Z,100526.28
2022-11-04T19:13:58.871Z,100526.84
2022-11-04T19:16:26.535Z,100534.06
2022-11-04T19:18:54.945Z,100537.47
2022-11-04T19:21:24.933Z,100532.22
2022-11-04T19:23:51.873Z,100531.88
2022-11-04T19:26:22.635Z,100533.38
2022-11-04T19:28:50.391Z,100538.63
2022-11-04T19:31:23.433Z,100534.41
2022-11-04T19:33:50.817Z,100530.88
2022-11-04T19:36:22.370Z,100532.75
2022-11-04T19:38:53.172Z,100534.69
2022-11-04T19:41:39.724Z,100535.81
2022-11-04T19:44:12.092Z,100536.25
2022-11-04T19:46:39.864Z,100530.09
2022-11-04T19:49:07.641Z,100539.09
2022-11-04T19:51:35.802Z,100529.22
2022-11-04T19:54:03.510Z,100529.50
2022-11-04T19:56:33.554Z,100538.16
2022-11-04T19:59:05.834Z,100529.09
2022-11-04T20:01:35.017Z,100523.09
2022-11-04T20:04:03.636Z,100529.44
2022-11-04T20:06:33.297Z,100525.88
2022-11-04T20:09:06.051Z,100526.75
2022-11-04T20:11:34.756Z,100537.53
2022-11-04T20:14:07.576Z,100527.94
2022-11-04T20:16:39.658Z,100530.59
2022-11-04T20:19:07.037Z,100528.00
2022-11-04T20:21:36.528Z,100512.84
2022-11-04T20:24:08.994Z,100518.97
2022-11-04T20:26:37.289Z,100513.75
2022-11-04T20:29:05.895Z,100513.66
2022-11-04T20:31:35.297Z,100518.09
2022-11-04T20:34:05.161Z,100520.78
2022-11-04T20:36:32.295Z,100511.78
2022-11-04T20:39:00.899Z,100509.94
2022-11-04T20:41:27.892Z,100504.75
2022-11-04T20:43:58.589Z,100507.53
2022-11-04T20:46:30.260Z,100504.50
2022-11-04T20:48:58.478Z,100507.06
2022-11-04T20:51:31.585Z,100510.41
2022-11-04T20:54:01.417Z,100500.38
2022-11-04T20:56:31.472Z,100502.94
2022-11-04T20:59:00.133Z,100499.56
2022-11-04T21:01:35.843Z,100498.63
2022-11-04T21:04:07.428Z,100494.25
2022-11-04T21:06:37.749Z,100491.78
2022-11-04T21:09:11.323Z,100498.75
2022-11-04T21:11:39.770Z,100486.47
2022-11-04T21:14:08.520Z,100484.84
2022-11-04T21:16:36.012Z,100492.69
2022-11-04T21:19:04.351Z,100488.31
2022-11-04T21:21:32.658Z,100487.34
2022-11-04T21:24:02.923Z,100484.72
2022-11-04T21:26:32.976Z,100487.38
2022-11-04T21:29:02.672Z,100485.53
2022-11-04T21:31:31.612Z,100480.44
2022-11-04T21:33:58.961Z,100487.66
2022-11-04T21:36:25.848Z,100478.72
2022-11-04T21:38:52.823Z,100484.72
2022-11-04T21:41:24.555Z,100482.63
2022-11-04T21:43:59.137Z,100476.34
2022-11-04T21:46:27.384Z,100470.63
2022-11-04T21:48:55.642Z,100479.41
2022-11-04T21:51:25.557Z,100467.88
2022-11-04T21:53:52.712Z,100466.66
2022-11-04T21:56:22.219Z,100470.50
2022-11-04T21:58:49.260Z,100466.19
2022-11-04T22:01:19.298Z,100459.91
2022-11-04T22:03:51.295Z,100460.03
2022-11-04T22:06:18.629Z,100453.66
2022-11-04T22:08:54.293Z,100455.63
2022-11-04T22:11:25.629Z,100452.28
2022-11-04T22:14:00.445Z,100451.84
2022-11-04T22:16:29.505Z,100453.59
2022-11-04T22:18:58.806Z,100446.72
2022-11-04T22:21:27.544Z,100441.41
2022-11-04T22:23:55.541Z,100441.94
2022-11-04T22:26:25.593Z,100442.97
2022-11-04T22:28:53.774Z,100438.06
2022-11-04T22:31:36.669Z,100433.63
2022-11-04T22:34:04.929Z,100432.66
2022-11-04T22:36:33.328Z,100445.84
2022-11-04T22:39:00.528Z,100443.25
2022-11-04T22:41:30.354Z,100442.28
2022-11-04T22:43:57.734Z,100428.97
2022-11-04T22:46:28.435Z,100435.31
2022-11-04T22:48:55.638Z,100427.41
2022-11-04T22:51:22.581Z,100425.69
2022-11-04T22:53:57.891Z,100428.22
2022-11-04T22:56:26.055Z,100420.09
2022-11-04T22:58:54.296Z,100414.03
2022-11-04T23:01:21.941Z,100417.91
2022-11-04T23:03:52.080Z,100409.88
2022-11-04T23:06:19.892Z,100411.81
2022-11-04T23:08:46.945Z,100406.66
2022-11-04T23:11:36.186Z,100403.13
2022-11-04T23:14:21.750Z,100407.63
2022-11-04T23:17:10.393Z,100409.19
2022-11-04T23:19:38.407Z,100406.59
2022-11-04T23:22:24.420Z,100403.19
2022-11-04T23:25:06.497Z,100405.09
2022-11-04T23:27:57.740Z,100405.19
2022-11-04T23:30:26.114Z,100394.47
2022-11-04T23:32:57.359Z,100396.22
2022-11-04T23:35:53.958Z,100389.34
2022-11-04T23:38:21.190Z,100382.25
2022-11-04T23:41:09.270Z,100389.28
2022-11-04T23:43:36.496Z,100398.03
2022-11-04T23:46:22.206Z,100387.25
2022-11-04T23:49:07.755Z,100390.09
2022-11-04T23:51:53.247Z,100386.63
2022-11-04T23:54:38.912Z,100384.03
2022-11-04T23:57:34.209Z,100388.47
